sensor_id;sensor_type;location;lat;lon;timestamp;temperature;humidity
54485;DHT22;45006;56.958;24.166;2022-11-20T00:01:23;21.20;77.00
54485;DHT22;45006;56.958;24.166;2022-11-20T00:03:54;21.30;77.00
54485;DHT22;45006;56.958;24.166;2022-11-20T00:06:22;21.30;77.00
54485;DHT22;45006;56.958;24.166;2022-11-20T00:08:49;21.30;77.60
54485;DHT22;45006;56.958;24.166;2022-11-20T00:11:21;21.30;76.90
54485;DHT22;45006;56.958;24.166;2022-11-20T00:13:50;21.30;77.00
54485;DHT22;45006;56.958;24.166;2022-11-20T00:16:20;21.30;76.90
54485;DHT22;45006;56.958;24.166;2022-11-20T00:18:47;21.30;77.00
54485;DHT22;45006;56.958;24.166;2022-11-20T00:21:22;21.30;77.10
54485;DHT22;45006;56.958;24.166;2022-11-20T00:23:50;21.30;77.10
54485;DHT22;45006;56.958;24.166;2022-11-20T00:26:21;21.30;77.10
54485;DHT22;45006;56.958;24.166;2022-11-20T00:28:53;21.30;77.10
54485;DHT22;45006;56.958;24.166;2022-11-20T00:31:20;21.30;77.20
54485;DHT22;45006;56.958;24.166;2022-11-20T00:33:47;21.30;77.30
54485;DHT22;45006;56.958;24.166;2022-11-20T00:36:20;21.30;77.40
54485;DHT22;45006;56.958;24.166;2022-11-20T00:38:51;21.30;77.40
54485;DHT22;45006;56.958;24.166;2022-11-20T00:41:19;21.30;77.50
54485;DHT22;45006;56.958;24.166;2022-11-20T00:43:46;21.30;77.50
54485;DHT22;45006;56.958;24.166;2022-11-20T00:46:16;21.30;77.60
54485;DHT22;45006;56.958;24.166;2022-11-20T00:48:43;21.30;77.70
54485;DHT22;45006;56.958;24.166;2022-11-20T00:51:18;21.30;77.80
54485;DHT22;45006;56.958;24.166;2022-11-20T00:53:46;21.30;77.90
54485;DHT22;45006;56.958;24.166;2022-11-20T00:56:15;21.30;77.90
54485;DHT22;45006;56.958;24.166;2022-11-20T00:58:44;21.30;77.80
54485;DHT22;45006;56.958;24.166;2022-11-20T01:01:14;21.30;77.80
54485;DHT22;45006;56.958;24.166;2022-11-20T01:03:44;21.30;77.90
54485;DHT22;45006;56.958;24.166;2022-11-20T01:06:23;21.30;77.90
54485;DHT22;45006;56.958;24.166;2022-11-20T01:08:52;21.30;77.80
54485;DHT22;45006;56.958;24.166;2022-11-20T01:11:24;21.30;77.80
54485;DHT22;45006;56.958;24.166;2022-11-20T01:13:53;21.30;77.80
54485;DHT22;45006;56.958;24.166;2022-11-20T01:16:23;21.30;78.00
54485;DHT22;45006;56.958;24.166;2022-11-20T01:18:52;21.30;78.00
54485;DHT22;45006;56.958;24.166;2022-11-20T01:21:21;21.30;78.00
54485;DHT22;45006;56.958;24.166;2022-11-20T01:23:49;21.30;77.80
54485;DHT22;45006;56.958;24.166;2022-11-20T01:26:19;21.30;77.70
54485;DHT22;45006;56.958;24.166;2022-11-20T01:28:46;21.30;77.60
54485;DHT22;45006;56.958;24.166;2022-11-20T01:31:28;21.30;77.60
54485;DHT22;45006;56.958;24.166;2022-11-20T01:33:57;21.30;77.50
54485;DHT22;45006;56.958;24.166;2022-11-20T01:36:26;21.30;77.40
54485;DHT22;45006;56.958;24.166;2022-11-20T01:38:54;21.30;77.40
54485;DHT22;45006;56.958;24.166;2022-11-20T01:41:23;21.30;77.30
54485;DHT22;45006;56.958;24.166;2022-11-20T01:44:10;21.30;77.30
54485;DHT22;45006;56.958;24.166;2022-11-20T01:46:42;21.30;77.20
54485;DHT22;45006;56.958;24.166;2022-11-20T01:49:17;21.30;77.10
54485;DHT22;45006;56.958;24.166;2022-11-20T01:52:04;21.30;77.10
54485;DHT22;45006;56.958;24.166;2022-11-20T01:54:39;21.30;77.00
54485;DHT22;45006;56.958;24.166;2022-11-20T01:57:10;21.30;76.90
54485;DHT22;45006;56.958;24.166;2022-11-20T01:59:45;21.30;76.90
54485;DHT22;45006;56.958;24.166;2022-11-20T02:02:14;21.30;76.80
54485;DHT22;45006;56.958;24.166;2022-11-20T02:04:41;21.30;76.70
54485;DHT22;45006;56.958;24.166;2022-11-20T02:07:08;21.30;76.70
54485;DHT22;45006;56.958;24.166;2022-11-20T02:09:35;21.30;76.60
54485;DHT22;45006;56.958;24.166;2022-11-20T02:12:03;21.30;76.60
54485;DHT22;45006;56.958;24.166;2022-11-20T02:14:30;21.30;76.60
54485;DHT22;45006;56.958;24.166;2022-11-20T02:16:57;21.30;76.50
54485;DHT22;45006;56.958;24.166;2022-11-20T02:19:31;21.30;76.50
54485;DHT22;45006;56.958;24.166;2022-11-20T02:22:05;21.30;76.40
54485;DHT22;45006;56.958;24.166;2022-11-20T02:24:34;21.30;76.40
54485;DHT22;45006;56.958;24.166;2022-11-20T02:27:08;21.30;76.40
54485;DHT22;45006;56.958;24.166;2022-11-20T02:29:52;21.30;76.40
54485;DHT22;45006;56.958;24.166;2022-11-20T02:34:46;21.30;76.30
54485;DHT22;45006;56.958;24.166;2022-11-20T02:37:14;21.30;76.30
54485;DHT22;45006;56.958;24.166;2022-11-20T02:39:41;21.30;76.30
54485;DHT22;45006;56.958;24.166;2022-11-20T02:42:09;21.30;76.20
54485;DHT22;45006;56.958;24.166;2022-11-20T02:44:35;21.30;76.10
54485;DHT22;45006;56.958;24.166;2022-11-20T02:47:03;21.30;76.20
54485;DHT22;45006;56.958;24.166;2022-11-20T02:49:29;21.30;76.10
54485;DHT22;45006;56.958;24.166;2022-11-20T02:51:56;21.30;76.10
54485;DHT22;45006;56.958;24.166;2022-11-20T02:54:23;21.30;76.00
54485;DHT22;45006;56.958;24.166;2022-11-20T02:56:50;21.30;76.00
54485;DHT22;45006;56.958;24.166;2022-11-20T02:59:17;21.30;76.10
54485;DHT22;45006;56.958;24.166;2022-11-20T03:01:45;21.30;76.20
54485;DHT22;45006;56.958;24.166;2022-11-20T03:04:12;21.30;76.20
54485;DHT22;45006;56.958;24.166;2022-11-20T03:06:39;21.30;76.10
54485;DHT22;45006;56.958;24.166;2022-11-20T03:09:05;21.30;76.10
54485;DHT22;45006;56.958;24.166;2022-11-20T03:11:32;21.30;76.00
54485;DHT22;45006;56.958;24.166;2022-11-20T03:14:03;21.30;76.00
54485;DHT22;45006;56.958;24.166;2022-11-20T03:16:31;21.30;76.10
54485;DHT22;45006;56.958;24.166;2022-11-20T03:18:58;21.30;76.10
54485;DHT22;45006;56.958;24.166;2022-11-20T03:21:25;21.30;76.00
54485;DHT22;45006;56.958;24.166;2022-11-20T03:23:54;21.30;76.00
54485;DHT22;45006;56.958;24.166;2022-11-20T03:26:23;21.30;75.80
54485;DHT22;45006;56.958;24.166;2022-11-20T03:28:52;21.30;75.80
54485;DHT22;45006;56.958;24.166;2022-11-20T03:31:22;21.30;75.60
54485;DHT22;45006;56.958;24.166;2022-11-20T03:33:50;21.30;75.50
54485;DHT22;45006;56.958;24.166;2022-11-20T03:36:18;21.30;75.50
54485;DHT22;45006;56.958;24.166;2022-11-20T03:38:45;21.30;75.40
54485;DHT22;45006;56.958;24.166;2022-11-20T03:41:15;21.30;75.40
54485;DHT22;45006;56.958;24.166;2022-11-20T03:43:50;21.30;75.40
54485;DHT22;45006;56.958;24.166;2022-11-20T03:46:17;21.30;75.60
54485;DHT22;45006;56.958;24.166;2022-11-20T03:48:45;21.30;75.50
54485;DHT22;45006;56.958;24.166;2022-11-20T03:51:19;21.30;75.50
54485;DHT22;45006;56.958;24.166;2022-11-20T03:53:47;21.30;75.40
54485;DHT22;45006;56.958;24.166;2022-11-20T03:56:16;21.30;75.40
54485;DHT22;45006;56.958;24.166;2022-11-20T03:58:43;21.30;75.40
54485;DHT22;45006;56.958;24.166;2022-11-20T04:01:11;21.30;76.00
54485;DHT22;45006;56.958;24.166;2022-11-20T04:03:41;21.30;75.30
54485;DHT22;45006;56.958;24.166;2022-11-20T04:06:16;21.30;75.40
54485;DHT22;45006;56.958;24.166;2022-11-20T04:08:44;21.30;75.20
54485;DHT22;45006;56.958;24.166;2022-11-20T04:11:20;21.30;75.20
54485;DHT22;45006;56.958;24.166;2022-11-20T04:13:51;21.30;75.70
54485;DHT22;45006;56.958;24.166;2022-11-20T04:16:18;21.30;75.00
54485;DHT22;45006;56.958;24.166;2022-11-20T04:18:46;21.30;74.90
54485;DHT22;45006;56.958;24.166;2022-11-20T04:21:12;21.30;74.80
54485;DHT22;45006;56.958;24.166;2022-11-20T04:23:39;21.30;74.90
54485;DHT22;45006;56.958;24.166;2022-11-20T04:26:08;21.30;74.90
54485;DHT22;45006;56.958;24.166;2022-11-20T04:28:36;21.30;74.90
54485;DHT22;45006;56.958;24.166;2022-11-20T04:31:20;21.30;74.90
54485;DHT22;45006;56.958;24.166;2022-11-20T04:33:48;21.30;74.90
54485;DHT22;45006;56.958;24.166;2022-11-20T04:36:17;21.30;75.50
54485;DHT22;45006;56.958;24.166;2022-11-20T04:38:44;21.30;74.90
54485;DHT22;45006;56.958;24.166;2022-11-20T04:41:16;21.30;74.90
54485;DHT22;45006;56.958;24.166;2022-11-20T04:43:55;21.30;74.80
54485;DHT22;45006;56.958;24.166;2022-11-20T04:46:26;21.30;74.80
54485;DHT22;45006;56.958;24.166;2022-11-20T04:48:54;21.30;74.90
54485;DHT22;45006;56.958;24.166;2022-11-20T04:51:21;21.30;74.90
54485;DHT22;45006;56.958;24.166;2022-11-20T04:53:48;21.30;74.90
54485;DHT22;45006;56.958;24.166;2022-11-20T04:56:15;21.30;74.80
54485;DHT22;45006;56.958;24.166;2022-11-20T04:58:43;21.30;74.80
54485;DHT22;45006;56.958;24.166;2022-11-20T05:01:15;21.30;74.70
54485;DHT22;45006;56.958;24.166;2022-11-20T05:03:43;21.30;74.70
54485;DHT22;45006;56.958;24.166;2022-11-20T05:06:12;21.40;74.70
54485;DHT22;45006;56.958;24.166;2022-11-20T05:08:40;21.30;74.60
54485;DHT22;45006;56.958;24.166;2022-11-20T05:13:36;21.30;74.60
54485;DHT22;45006;56.958;24.166;2022-11-20T05:16:08;21.30;74.50
54485;DHT22;45006;56.958;24.166;2022-11-20T05:18:36;21.30;74.40
54485;DHT22;45006;56.958;24.166;2022-11-20T05:21:04;21.30;74.40
54485;DHT22;45006;56.958;24.166;2022-11-20T05:23:32;21.30;74.40
54485;DHT22;45006;56.958;24.166;2022-11-20T05:26:00;21.30;74.40
54485;DHT22;45006;56.958;24.166;2022-11-20T05:28:28;21.30;74.30
54485;DHT22;45006;56.958;24.166;2022-11-20T05:30:56;21.40;74.30
54485;DHT22;45006;56.958;24.166;2022-11-20T05:33:22;21.30;74.10
54485;DHT22;45006;56.958;24.166;2022-11-20T05:35:49;21.40;74.20
54485;DHT22;45006;56.958;24.166;2022-11-20T05:38:16;21.30;74.10
54485;DHT22;45006;56.958;24.166;2022-11-20T05:40:43;21.30;74.10
54485;DHT22;45006;56.958;24.166;2022-11-20T05:43:10;21.40;74.10
54485;DHT22;45006;56.958;24.166;2022-11-20T05:45:37;21.30;74.00
54485;DHT22;45006;56.958;24.166;2022-11-20T05:48:04;21.30;74.00
54485;DHT22;45006;56.958;24.166;2022-11-20T05:50:31;21.30;74.00
54485;DHT22;45006;56.958;24.166;2022-11-20T05:52:59;21.30;74.00
54485;DHT22;45006;56.958;24.166;2022-11-20T05:55:27;21.40;74.10
54485;DHT22;45006;56.958;24.166;2022-11-20T05:57:54;21.30;74.10
54485;DHT22;45006;56.958;24.166;2022-11-20T06:00:22;21.30;74.10
54485;DHT22;45006;56.958;24.166;2022-11-20T06:02:49;21.30;74.20
54485;DHT22;45006;56.958;24.166;2022-11-20T06:05:16;21.30;74.10
54485;DHT22;45006;56.958;24.166;2022-11-20T06:07:43;21.30;74.20
54485;DHT22;45006;56.958;24.166;2022-11-20T06:10:10;21.40;74.30
54485;DHT22;45006;56.958;24.166;2022-11-20T06:12:37;21.30;74.30
54485;DHT22;45006;56.958;24.166;2022-11-20T06:15:05;21.30;74.30
54485;DHT22;45006;56.958;24.166;2022-11-20T06:17:32;21.30;74.20
54485;DHT22;45006;56.958;24.166;2022-11-20T06:19:59;21.30;74.20
54485;DHT22;45006;56.958;24.166;2022-11-20T06:22:26;21.40;74.20
54485;DHT22;45006;56.958;24.166;2022-11-20T06:24:52;21.30;74.10
54485;DHT22;45006;56.958;24.166;2022-11-20T06:27:19;21.30;74.10
54485;DHT22;45006;56.958;24.166;2022-11-20T06:29:46;21.30;74.00
54485;DHT22;45006;56.958;24.166;2022-11-20T06:32:13;21.40;74.00
54485;DHT22;45006;56.958;24.166;2022-11-20T06:34:40;21.30;74.00
54485;DHT22;45006;56.958;24.166;2022-11-20T06:37:07;21.30;74.10
54485;DHT22;45006;56.958;24.166;2022-11-20T06:39:33;21.30;74.10
54485;DHT22;45006;56.958;24.166;2022-11-20T06:42:00;21.30;74.00
54485;DHT22;45006;56.958;24.166;2022-11-20T06:44:27;21.40;74.30
54485;DHT22;45006;56.958;24.166;2022-11-20T06:46:54;21.40;74.30
54485;DHT22;45006;56.958;24.166;2022-11-20T06:49:21;21.40;74.50
54485;DHT22;45006;56.958;24.166;2022-11-20T06:51:48;21.40;74.50
54485;DHT22;45006;56.958;24.166;2022-11-20T06:54:15;21.40;74.70
54485;DHT22;45006;56.958;24.166;2022-11-20T06:56:42;21.40;74.80
54485;DHT22;45006;56.958;24.166;2022-11-20T06:59:12;21.30;75.20
54485;DHT22;45006;56.958;24.166;2022-11-20T07:01:39;21.20;75.40
54485;DHT22;45006;56.958;24.166;2022-11-20T07:04:06;21.30;75.40
54485;DHT22;45006;56.958;24.166;2022-11-20T07:06:33;21.30;75.30
54485;DHT22;45006;56.958;24.166;2022-11-20T07:09:00;21.30;75.20
54485;DHT22;45006;56.958;24.166;2022-11-20T07:11:27;21.30;75.30
54485;DHT22;45006;56.958;24.166;2022-11-20T07:13:53;21.40;75.40
54485;DHT22;45006;56.958;24.166;2022-11-20T07:16:20;21.40;75.50
54485;DHT22;45006;56.958;24.166;2022-11-20T07:18:47;21.40;75.50
54485;DHT22;45006;56.958;24.166;2022-11-20T07:21:16;21.40;75.60
54485;DHT22;45006;56.958;24.166;2022-11-20T07:23:43;21.40;75.70
54485;DHT22;45006;56.958;24.166;2022-11-20T07:26:11;21.40;75.80
54485;DHT22;45006;56.958;24.166;2022-11-20T07:28:38;21.40;75.80
54485;DHT22;45006;56.958;24.166;2022-11-20T07:31:05;21.40;75.90
54485;DHT22;45006;56.958;24.166;2022-11-20T07:33:33;21.40;76.00
54485;DHT22;45006;56.958;24.166;2022-11-20T07:36:00;21.40;76.00
54485;DHT22;45006;56.958;24.166;2022-11-20T07:38:28;21.40;76.00
54485;DHT22;45006;56.958;24.166;2022-11-20T07:40:58;21.40;76.10
54485;DHT22;45006;56.958;24.166;2022-11-20T07:43:28;21.40;76.10
54485;DHT22;45006;56.958;24.166;2022-11-20T07:45:59;21.40;76.20
54485;DHT22;45006;56.958;24.166;2022-11-20T07:48:26;21.40;76.20
54485;DHT22;45006;56.958;24.166;2022-11-20T07:50:54;21.40;76.30
54485;DHT22;45006;56.958;24.166;2022-11-20T07:53:22;21.40;76.30
54485;DHT22;45006;56.958;24.166;2022-11-20T07:55:49;21.40;76.40
54485;DHT22;45006;56.958;24.166;2022-11-20T07:58:19;21.40;76.50
54485;DHT22;45006;56.958;24.166;2022-11-20T08:00:46;21.40;76.60
54485;DHT22;45006;56.958;24.166;2022-11-20T08:03:13;21.40;76.60
54485;DHT22;45006;56.958;24.166;2022-11-20T08:05:43;21.40;76.70
54485;DHT22;45006;56.958;24.166;2022-11-20T08:08:10;21.40;76.80
54485;DHT22;45006;56.958;24.166;2022-11-20T08:10:37;21.40;76.90
54485;DHT22;45006;56.958;24.166;2022-11-20T08:13:04;21.40;76.90
54485;DHT22;45006;56.958;24.166;2022-11-20T08:15:50;21.40;76.90
54485;DHT22;45006;56.958;24.166;2022-11-20T08:18:17;21.40;76.90
54485;DHT22;45006;56.958;24.166;2022-11-20T08:21:03;21.40;77.00
54485;DHT22;45006;56.958;24.166;2022-11-20T08:23:31;21.40;77.00
54485;DHT22;45006;56.958;24.166;2022-11-20T08:25:58;21.40;77.10
54485;DHT22;45006;56.958;24.166;2022-11-20T08:28:24;21.40;77.10
54485;DHT22;45006;56.958;24.166;2022-11-20T08:30:58;21.40;77.10
54485;DHT22;45006;56.958;24.166;2022-11-20T08:33:25;21.40;77.10
54485;DHT22;45006;56.958;24.166;2022-11-20T08:35:52;21.40;77.10
54485;DHT22;45006;56.958;24.166;2022-11-20T08:38:19;21.40;77.10
54485;DHT22;45006;56.958;24.166;2022-11-20T08:40:46;21.40;77.10
54485;DHT22;45006;56.958;24.166;2022-11-20T08:43:33;21.40;77.20
54485;DHT22;45006;56.958;24.166;2022-11-20T08:46:00;21.40;77.30
54485;DHT22;45006;56.958;24.166;2022-11-20T08:48:27;21.30;76.20
54485;DHT22;45006;56.958;24.166;2022-11-20T08:50:58;21.30;75.20
54485;DHT22;45006;56.958;24.166;2022-11-20T08:53:26;21.30;74.60
54485;DHT22;45006;56.958;24.166;2022-11-20T08:55:53;21.30;74.30
54485;DHT22;45006;56.958;24.166;2022-11-20T08:58:20;21.30;73.80
54485;DHT22;45006;56.958;24.166;2022-11-20T09:00:47;21.30;73.60
54485;DHT22;45006;56.958;24.166;2022-11-20T09:03:14;21.30;73.60
54485;DHT22;45006;56.958;24.166;2022-11-20T09:05:41;21.30;73.40
54485;DHT22;45006;56.958;24.166;2022-11-20T09:08:08;21.30;73.40
54485;DHT22;45006;56.958;24.166;2022-11-20T09:10:35;21.30;73.30
54485;DHT22;45006;56.958;24.166;2022-11-20T09:13:03;21.30;73.10
54485;DHT22;45006;56.958;24.166;2022-11-20T09:15:29;21.30;73.10
54485;DHT22;45006;56.958;24.166;2022-11-20T09:18:01;21.30;73.10
54485;DHT22;45006;56.958;24.166;2022-11-20T09:20:30;21.30;73.00
54485;DHT22;45006;56.958;24.166;2022-11-20T09:22:57;21.30;73.40
54485;DHT22;45006;56.958;24.166;2022-11-20T09:25:24;21.30;72.80
54485;DHT22;45006;56.958;24.166;2022-11-20T09:27:55;21.30;72.70
54485;DHT22;45006;56.958;24.166;2022-11-20T09:30:22;21.30;72.90
54485;DHT22;45006;56.958;24.166;2022-11-20T09:32:49;21.20;72.80
54485;DHT22;45006;56.958;24.166;2022-11-20T09:35:16;21.20;72.80
54485;DHT22;45006;56.958;24.166;2022-11-20T09:37:45;21.20;72.70
54485;DHT22;45006;56.958;24.166;2022-11-20T09:40:23;21.30;72.70
54485;DHT22;45006;56.958;24.166;2022-11-20T09:46:14;21.30;72.70
54485;DHT22;45006;56.958;24.166;2022-11-20T09:51:34;21.30;72.40
54485;DHT22;45006;56.958;24.166;2022-11-20T09:54:22;21.30;72.30
54485;DHT22;45006;56.958;24.166;2022-11-20T09:56:53;21.30;72.30
54485;DHT22;45006;56.958;24.166;2022-11-20T09:59:36;21.30;72.30
54485;DHT22;45006;56.958;24.166;2022-11-20T10:05:40;21.30;72.20
54485;DHT22;45006;56.958;24.166;2022-11-20T10:10:50;21.30;72.00
54485;DHT22;45006;56.958;24.166;2022-11-20T10:29:34;21.30;71.10
54485;DHT22;45006;56.958;24.166;2022-11-20T10:32:09;21.30;70.90
54485;DHT22;45006;56.958;24.166;2022-11-20T10:34:48;21.30;70.80
54485;DHT22;45006;56.958;24.166;2022-11-20T10:37:26;21.30;71.00
54485;DHT22;45006;56.958;24.166;2022-11-20T10:39:58;21.30;71.40
54485;DHT22;45006;56.958;24.166;2022-11-20T10:45:58;21.30;71.60
54485;DHT22;45006;56.958;24.166;2022-11-20T10:48:25;21.30;71.80
54485;DHT22;45006;56.958;24.166;2022-11-20T10:56:34;21.30;72.20
54485;DHT22;45006;56.958;24.166;2022-11-20T10:59:12;21.30;72.30
54485;DHT22;45006;56.958;24.166;2022-11-20T11:01:46;21.20;72.40
54485;DHT22;45006;56.958;24.166;2022-11-20T11:07:51;21.20;72.40
54485;DHT22;45006;56.958;24.166;2022-11-20T11:09:53;21.20;72.50
54485;DHT22;45006;56.958;24.166;2022-11-20T11:12:24;21.30;72.60
54485;DHT22;45006;56.958;24.166;2022-11-20T11:14:57;21.20;72.60
54485;DHT22;45006;56.958;24.166;2022-11-20T11:17:27;21.20;72.70
54485;DHT22;45006;56.958;24.166;2022-11-20T11:20:14;21.20;72.80
54485;DHT22;45006;56.958;24.166;2022-11-20T11:22:56;21.20;72.90
54485;DHT22;45006;56.958;24.166;2022-11-20T11:25:33;21.20;72.90
54485;DHT22;45006;56.958;24.166;2022-11-20T11:28:17;21.20;73.00
54485;DHT22;45006;56.958;24.166;2022-11-20T11:30:46;21.20;73.00
54485;DHT22;45006;56.958;24.166;2022-11-20T11:33:22;21.20;73.10
54485;DHT22;45006;56.958;24.166;2022-11-20T11:35:55;21.20;73.10
54485;DHT22;45006;56.958;24.166;2022-11-20T11:38:41;21.20;73.10
54485;DHT22;45006;56.958;24.166;2022-11-20T11:41:21;21.10;73.10
54485;DHT22;45006;56.958;24.166;2022-11-20T11:43:54;21.10;73.20
54485;DHT22;45006;56.958;24.166;2022-11-20T11:46:49;21.10;73.30
54485;DHT22;45006;56.958;24.166;2022-11-20T11:49:19;21.10;73.30
54485;DHT22;45006;56.958;24.166;2022-11-20T11:54:39;21.10;73.20
54485;DHT22;45006;56.958;24.166;2022-11-20T12:00:21;21.20;72.50
54485;DHT22;45006;56.958;24.166;2022-11-20T12:03:14;21.20;72.00
54485;DHT22;45006;56.958;24.166;2022-11-20T12:05:54;21.20;71.50
54485;DHT22;45006;56.958;24.166;2022-11-20T12:08:27;21.20;70.80
54485;DHT22;45006;56.958;24.166;2022-11-20T12:14:14;21.20;70.80
54485;DHT22;45006;56.958;24.166;2022-11-20T12:16:43;21.20;70.40
54485;DHT22;45006;56.958;24.166;2022-11-20T12:19:12;21.20;70.30
54485;DHT22;45006;56.958;24.166;2022-11-20T12:30:09;21.20;69.90
54485;DHT22;45006;56.958;24.166;2022-11-20T12:36:07;21.30;69.70
54485;DHT22;45006;56.958;24.166;2022-11-20T12:41:17;21.20;69.60
54485;DHT22;45006;56.958;24.166;2022-11-20T12:44:37;21.20;69.50
54485;DHT22;45006;56.958;24.166;2022-11-20T13:01:48;21.00;69.50
54485;DHT22;45006;56.958;24.166;2022-11-20T13:06:46;21.00;69.20
54485;DHT22;45006;56.958;24.166;2022-11-20T13:09:18;21.00;68.90
54485;DHT22;45006;56.958;24.166;2022-11-20T13:14:36;20.90;68.40
54485;DHT22;45006;56.958;24.166;2022-11-20T13:19:41;21.10;67.10
54485;DHT22;45006;56.958;24.166;2022-11-20T13:22:09;21.10;66.60
54485;DHT22;45006;56.958;24.166;2022-11-20T13:24:36;21.10;66.20
54485;DHT22;45006;56.958;24.166;2022-11-20T13:29:44;21.20;65.90
54485;DHT22;45006;56.958;24.166;2022-11-20T13:32:18;21.20;65.90
54485;DHT22;45006;56.958;24.166;2022-11-20T13:34:54;21.20;65.90
54485;DHT22;45006;56.958;24.166;2022-11-20T13:37:38;21.20;66.00
54485;DHT22;45006;56.958;24.166;2022-11-20T13:42:56;21.20;66.20
54485;DHT22;45006;56.958;24.166;2022-11-20T13:45:29;21.20;66.30
54485;DHT22;45006;56.958;24.166;2022-11-20T13:48:03;21.20;66.50
54485;DHT22;45006;56.958;24.166;2022-11-20T13:50:40;21.20;66.90
54485;DHT22;45006;56.958;24.166;2022-11-20T13:53:22;21.20;67.00
54485;DHT22;45006;56.958;24.166;2022-11-20T13:56:01;21.20;67.20
54485;DHT22;45006;56.958;24.166;2022-11-20T13:59:02;21.20;67.30
54485;DHT22;45006;56.958;24.166;2022-11-20T14:01:37;21.20;67.30
54485;DHT22;45006;56.958;24.166;2022-11-20T14:04:08;21.20;67.30
54485;DHT22;45006;56.958;24.166;2022-11-20T14:06:44;21.20;67.40
54485;DHT22;45006;56.958;24.166;2022-11-20T14:09:24;21.20;67.30
54485;DHT22;45006;56.958;24.166;2022-11-20T14:11:52;21.20;67.30
54485;DHT22;45006;56.958;24.166;2022-11-20T14:14:22;21.20;67.30
54485;DHT22;45006;56.958;24.166;2022-11-20T14:16:52;21.20;67.30
54485;DHT22;45006;56.958;24.166;2022-11-20T14:21:52;21.20;67.40
54485;DHT22;45006;56.958;24.166;2022-11-20T14:24:21;21.10;67.40
54485;DHT22;45006;56.958;24.166;2022-11-20T14:26:51;21.10;67.40
54485;DHT22;45006;56.958;24.166;2022-11-20T14:29:26;21.10;67.30
54485;DHT22;45006;56.958;24.166;2022-11-20T14:31:55;21.10;67.30
54485;DHT22;45006;56.958;24.166;2022-11-20T14:34:25;21.10;67.40
54485;DHT22;45006;56.958;24.166;2022-11-20T14:37:05;21.10;67.50
54485;DHT22;45006;56.958;24.166;2022-11-20T14:39:40;21.10;67.50
54485;DHT22;45006;56.958;24.166;2022-11-20T14:42:22;21.10;67.50
54485;DHT22;45006;56.958;24.166;2022-11-20T14:44:51;21.10;67.50
54485;DHT22;45006;56.958;24.166;2022-11-20T14:47:21;21.10;67.50
54485;DHT22;45006;56.958;24.166;2022-11-20T14:49:50;21.10;67.60
54485;DHT22;45006;56.958;24.166;2022-11-20T14:52:20;21.10;67.60
54485;DHT22;45006;56.958;24.166;2022-11-20T14:54:57;21.10;67.70
54485;DHT22;45006;56.958;24.166;2022-11-20T14:57:33;21.10;67.70
54485;DHT22;45006;56.958;24.166;2022-11-20T15:02:34;21.10;67.80
54485;DHT22;45006;56.958;24.166;2022-11-20T15:05:01;21.10;67.80
54485;DHT22;45006;56.958;24.166;2022-11-20T15:07:38;21.10;67.80
54485;DHT22;45006;56.958;24.166;2022-11-20T15:10:24;21.10;67.80
54485;DHT22;45006;56.958;24.166;2022-11-20T15:12:57;21.10;67.90
54485;DHT22;45006;56.958;24.166;2022-11-20T15:15:36;21.10;67.90
54485;DHT22;45006;56.958;24.166;2022-11-20T15:18:14;21.10;67.90
54485;DHT22;45006;56.958;24.166;2022-11-20T15:20:42;21.10;68.00
54485;DHT22;45006;56.958;24.166;2022-11-20T15:23:15;21.00;68.00
54485;DHT22;45006;56.958;24.166;2022-11-20T15:25:42;21.00;67.90
54485;DHT22;45006;56.958;24.166;2022-11-20T15:28:19;21.00;67.90
54485;DHT22;45006;56.958;24.166;2022-11-20T15:30:48;21.00;67.90
54485;DHT22;45006;56.958;24.166;2022-11-20T15:33:16;21.10;68.00
54485;DHT22;45006;56.958;24.166;2022-11-20T15:35:44;21.00;68.00
54485;DHT22;45006;56.958;24.166;2022-11-20T15:38:11;21.00;68.00
54485;DHT22;45006;56.958;24.166;2022-11-20T15:40:38;21.00;68.00
54485;DHT22;45006;56.958;24.166;2022-11-20T15:43:06;21.00;68.60
54485;DHT22;45006;56.958;24.166;2022-11-20T15:45:48;21.00;67.90
54485;DHT22;45006;56.958;24.166;2022-11-20T15:48:20;21.00;67.90
54485;DHT22;45006;56.958;24.166;2022-11-20T15:53:17;21.00;67.70
54485;DHT22;45006;56.958;24.166;2022-11-20T15:55:44;21.00;67.70
54485;DHT22;45006;56.958;24.166;2022-11-20T15:58:11;21.00;67.70
54485;DHT22;45006;56.958;24.166;2022-11-20T16:00:38;21.00;67.70
54485;DHT22;45006;56.958;24.166;2022-11-20T16:03:07;21.00;67.60
54485;DHT22;45006;56.958;24.166;2022-11-20T16:05:35;21.00;67.60
54485;DHT22;45006;56.958;24.166;2022-11-20T16:08:02;21.00;67.60
54485;DHT22;45006;56.958;24.166;2022-11-20T16:10:36;21.00;67.70
54485;DHT22;45006;56.958;24.166;2022-11-20T16:13:03;21.00;67.70
54485;DHT22;45006;56.958;24.166;2022-11-20T16:15:55;21.00;67.60
54485;DHT22;45006;56.958;24.166;2022-11-20T16:18:23;21.00;67.60
54485;DHT22;45006;56.958;24.166;2022-11-20T16:20:52;21.00;67.60
54485;DHT22;45006;56.958;24.166;2022-11-20T16:23:21;21.00;67.70
54485;DHT22;45006;56.958;24.166;2022-11-20T16:25:48;21.00;67.70
54485;DHT22;45006;56.958;24.166;2022-11-20T16:28:16;21.00;67.70
54485;DHT22;45006;56.958;24.166;2022-11-20T16:30:46;21.00;67.70
54485;DHT22;45006;56.958;24.166;2022-11-20T16:33:15;21.00;67.70
54485;DHT22;45006;56.958;24.166;2022-11-20T16:35:43;20.90;67.60
54485;DHT22;45006;56.958;24.166;2022-11-20T16:38:10;20.90;68.20
54485;DHT22;45006;56.958;24.166;2022-11-20T16:40:37;20.90;67.60
54485;DHT22;45006;56.958;24.166;2022-11-20T16:43:11;20.90;67.70
54485;DHT22;45006;56.958;24.166;2022-11-20T16:45:44;20.90;67.70
54485;DHT22;45006;56.958;24.166;2022-11-20T16:48:15;20.90;67.70
54485;DHT22;45006;56.958;24.166;2022-11-20T16:50:50;20.90;67.70
54485;DHT22;45006;56.958;24.166;2022-11-20T16:53:20;20.90;67.70
54485;DHT22;45006;56.958;24.166;2022-11-20T16:55:48;20.90;67.70
54485;DHT22;45006;56.958;24.166;2022-11-20T16:58:15;21.00;67.70
54485;DHT22;45006;56.958;24.166;2022-11-20T17:00:42;21.00;67.70
54485;DHT22;45006;56.958;24.166;2022-11-20T17:03:17;21.00;67.70
54485;DHT22;45006;56.958;24.166;2022-11-20T17:05:44;20.90;67.80
54485;DHT22;45006;56.958;24.166;2022-11-20T17:08:11;20.90;68.00
54485;DHT22;45006;56.958;24.166;2022-11-20T17:10:38;20.90;67.90
54485;DHT22;45006;56.958;24.166;2022-11-20T17:13:05;20.90;67.80
54485;DHT22;45006;56.958;24.166;2022-11-20T17:15:32;20.90;67.80
54485;DHT22;45006;56.958;24.166;2022-11-20T17:17:59;20.90;67.80
54485;DHT22;45006;56.958;24.166;2022-11-20T17:20:29;21.00;67.90